Time;durP1;ratioP1;P1;durP2;ratioP2;P2;SDS_P1;SDS_P2;PMS_P1;PMS_P2;Temp;Humidity;BMP_temperature;BMP_pressure;BME280_temperature;BME280_humidity;BME280_pressure;Samples;Min_cycle;Max_cycle;Signal;HPM_P1;HPM_P2
2023/10/19 00:00:22;;;;;;;0.05;0.05;;;20.20;50.40;;;;;;5081050;28;20237;-44
2023/10/19 00:02:54;;;;;;;0.10;0.10;;;20.20;50.40;;;;;;5081699;28;20260;-47
2023/10/19 00:05:26;;;;;;;0.00;0.00;;;20.20;50.40;;;;;;5079052;28;20557;-42
2023/10/19 00:07:59;;;;;;;0.05;0.05;;;20.20;50.30;;;;;;5076002;28;20214;-48
2023/10/19 00:10:34;;;;;;;0.00;0.00;;;20.20;50.30;;;;;;5081557;28;20562;-55
2023/10/19 00:13:05;;;;;;;0.00;0.00;;;20.30;50.30;;;;;;5087037;28;20198;-45
2023/10/19 00:15:39;;;;;;;0.10;0.10;;;20.30;50.40;;;;;;5077278;28;20251;-54
2023/10/19 00:21:10;;;;;;;0.10;0.10;;;20.30;49.90;;;;;;5075559;28;20190;-55
2023/10/19 00:23:40;;;;;;;0.10;0.10;;;20.30;50.20;;;;;;5089141;28;20202;-56
2023/10/19 00:26:15;;;;;;;0.10;0.10;;;20.30;50.50;;;;;;5088176;28;20283;-56
2023/10/19 00:28:49;;;;;;;0.10;0.10;;;20.40;50.70;;;;;;5088618;28;20704;-52
2023/10/19 00:31:20;;;;;;;0.00;0.00;;;20.40;50.80;;;;;;5081227;28;20229;-55
2023/10/19 00:33:51;;;;;;;0.10;0.10;;;20.40;50.80;;;;;;5086217;28;20207;-52
2023/10/19 00:36:22;;;;;;;0.05;0.05;;;20.40;50.80;;;;;;5093750;28;20251;-53
2023/10/19 00:38:53;;;;;;;0.00;0.00;;;20.50;50.80;;;;;;5082913;28;20235;-53
2023/10/19 00:41:29;;;;;;;0.00;0.00;;;20.50;50.70;;;;;;5088743;28;20195;-52
2023/10/19 00:44:03;;;;;;;0.03;0.03;;;20.60;50.70;;;;;;5093322;28;20237;-54
2023/10/19 00:46:41;;;;;;;0.10;0.10;;;20.60;50.70;;;;;;5083021;28;20396;-54
2023/10/19 00:49:15;;;;;;;0.10;0.10;;;20.60;50.70;;;;;;5074666;28;20215;-55
2023/10/19 00:51:54;;;;;;;0.00;0.00;;;20.70;50.70;;;;;;5079440;28;20695;-56
2023/10/19 00:54:31;;;;;;;0.10;0.10;;;20.70;50.80;;;;;;5077742;28;20653;-54
2023/10/19 00:57:08;;;;;;;0.10;0.10;;;20.70;50.70;;;;;;5077325;28;20233;-51
2023/10/19 00:59:43;;;;;;;0.10;0.10;;;20.70;50.70;;;;;;5078573;28;20748;-55
2023/10/19 01:02:19;;;;;;;0.03;0.03;;;20.70;50.70;;;;;;5091681;28;20201;-47
2023/10/19 01:04:55;;;;;;;0.00;0.00;;;20.80;50.80;;;;;;5086228;28;20591;-55
2023/10/19 01:07:33;;;;;;;0.10;0.10;;;20.80;50.70;;;;;;5090011;28;20556;-55
2023/10/19 01:10:07;;;;;;;0.00;0.00;;;20.80;50.70;;;;;;5086698;28;20734;-53
2023/10/19 01:12:41;;;;;;;0.10;0.10;;;20.80;50.70;;;;;;5081546;28;20198;-52
2023/10/19 01:15:16;;;;;;;0.10;0.10;;;20.90;50.70;;;;;;5088878;28;20206;-47
2023/10/19 01:17:52;;;;;;;0.00;0.00;;;20.90;50.60;;;;;;5078004;28;20230;-48
2023/10/19 01:20:34;;;;;;;0.00;0.00;;;20.90;50.20;;;;;;5079579;28;20202;-47
2023/10/19 01:23:20;;;;;;;0.00;0.00;;;20.90;50.00;;;;;;5085336;28;20566;-47
2023/10/19 01:25:59;;;;;;;0.05;0.05;;;20.90;50.00;;;;;;5075963;28;20210;-52
2023/10/19 01:28:42;;;;;;;0.13;0.13;;;20.90;50.20;;;;;;5078902;28;20249;-53
2023/10/19 01:31:17;;;;;;;0.10;0.10;;;20.90;50.20;;;;;;5084417;28;20244;-47
2023/10/19 01:33:49;;;;;;;0.10;0.10;;;20.90;50.30;;;;;;5081717;28;20204;-53
2023/10/19 01:36:27;;;;;;;0.00;0.00;;;20.90;50.20;;;;;;5072779;28;20203;-50
2023/10/19 01:39:01;;;;;;;0.00;0.00;;;20.90;50.90;;;;;;5082919;28;20707;-50
2023/10/19 01:41:32;;;;;;;0.10;0.10;;;21.00;50.30;;;;;;5075705;28;20190;-50
2023/10/19 01:44:04;;;;;;;0.00;0.00;;;21.00;50.40;;;;;;5083802;28;20250;-47
2023/10/19 01:46:36;;;;;;;0.00;0.00;;;21.00;50.40;;;;;;5077439;28;20713;-44
2023/10/19 01:49:08;;;;;;;0.10;0.10;;;21.00;50.40;;;;;;5079058;28;20226;-48
2023/10/19 01:51:40;;;;;;;0.10;0.10;;;21.00;50.40;;;;;;5085995;28;20573;-46
2023/10/19 01:54:14;;;;;;;0.00;0.00;;;21.00;50.40;;;;;;5087149;28;20263;-46
2023/10/19 01:56:45;;;;;;;0.00;0.00;;;21.00;50.40;;;;;;5078416;28;20673;-54
2023/10/19 01:59:16;;;;;;;0.10;0.10;;;21.10;50.30;;;;;;5087408;28;20249;-56
2023/10/19 02:01:47;;;;;;;0.10;0.10;;;21.10;50.30;;;;;;5080137;28;20199;-55
2023/10/19 02:04:18;;;;;;;0.00;0.00;;;21.10;50.30;;;;;;5080274;28;20553;-54
2023/10/19 02:06:53;;;;;;;0.10;0.10;;;21.20;50.40;;;;;;5083899;28;20191;-50
2023/10/19 02:09:26;;;;;;;0.00;0.00;;;21.20;50.30;;;;;;5080166;28;20261;-55
2023/10/19 02:11:58;;;;;;;0.10;0.10;;;21.30;50.30;;;;;;5083287;28;20196;-54
2023/10/19 02:14:29;;;;;;;0.00;0.00;;;21.30;50.20;;;;;;5072821;28;20260;-48
2023/10/19 02:17:01;;;;;;;0.10;0.10;;;21.30;50.10;;;;;;5088821;28;20201;-49
2023/10/19 02:19:31;;;;;;;0.00;0.00;;;21.30;50.10;;;;;;5073171;28;20246;-49
2023/10/19 02:22:05;;;;;;;0.05;0.05;;;21.30;50.00;;;;;;5072620;28;20273;-55
2023/10/19 02:24:37;;;;;;;0.10;0.10;;;21.40;50.00;;;;;;5080840;28;20285;-54
2023/10/19 02:27:09;;;;;;;0.00;0.00;;;21.40;49.90;;;;;;5088049;28;20893;-51
2023/10/19 02:29:38;;;;;;;0.05;0.05;;;21.40;49.90;;;;;;5090209;28;20681;-47
2023/10/19 02:32:10;;;;;;;0.10;0.10;;;21.40;49.80;;;;;;5079224;28;20632;-48
2023/10/19 02:34:39;;;;;;;0.03;0.03;;;21.50;49.80;;;;;;5066371;28;20282;-51
2023/10/19 02:37:10;;;;;;;0.10;0.10;;;21.40;49.70;;;;;;5099776;28;20190;-55
2023/10/19 02:39:43;;;;;;;0.10;0.10;;;21.50;49.80;;;;;;5081371;28;20226;-53
2023/10/19 02:42:13;;;;;;;0.10;0.10;;;21.50;49.70;;;;;;5085705;28;20195;-53
2023/10/19 02:44:43;;;;;;;0.00;0.00;;;21.50;49.70;;;;;;5077196;28;20205;-55
2023/10/19 02:47:12;;;;;;;0.00;0.00;;;21.50;49.60;;;;;;5086023;28;20213;-51
2023/10/19 02:49:44;;;;;;;0.00;0.00;;;21.60;49.60;;;;;;5081976;28;20752;-47
2023/10/19 02:52:16;;;;;;;0.10;0.10;;;21.60;49.60;;;;;;5080942;28;20662;-45
2023/10/19 02:54:48;;;;;;;0.00;0.00;;;21.60;49.60;;;;;;5086299;28;20199;-43
2023/10/19 02:57:21;;;;;;;0.00;0.00;;;21.60;49.60;;;;;;5076243;28;20194;-52
2023/10/19 02:59:50;;;;;;;0.10;0.10;;;21.60;49.70;;;;;;5088518;28;20704;-51
2023/10/19 03:02:26;;;;;;;0.00;0.00;;;21.70;49.50;;;;;;5083850;28;20294;-50
2023/10/19 03:04:57;;;;;;;0.00;0.00;;;21.70;49.50;;;;;;5085334;28;20247;-53
2023/10/19 03:07:27;;;;;;;0.00;0.00;;;21.70;49.40;;;;;;5083258;28;20202;-50
2023/10/19 03:10:02;;;;;;;0.05;0.05;;;21.70;49.40;;;;;;5073944;28;20195;-55
2023/10/19 03:12:32;;;;;;;0.10;0.10;;;21.70;49.40;;;;;;5083082;28;20190;-51
2023/10/19 03:15:05;;;;;;;0.03;0.03;;;21.80;49.30;;;;;;5076528;28;20249;-52
2023/10/19 03:17:34;;;;;;;0.10;0.10;;;21.80;49.30;;;;;;5080103;28;20210;-55
2023/10/19 03:20:08;;;;;;;0.00;0.00;;;21.80;49.30;;;;;;5077749;28;20194;-50
2023/10/19 03:22:38;;;;;;;0.00;0.00;;;21.80;49.30;;;;;;5079795;28;20198;-54
2023/10/19 03:25:49;;;;;;;0.10;0.10;;;21.90;49.30;;;;;;5084238;28;20243;-52
2023/10/19 03:28:17;;;;;;;0.10;0.10;;;21.90;49.30;;;;;;5080237;28;20657;-54
2023/10/19 03:30:50;;;;;;;0.00;0.00;;;22.00;49.30;;;;;;5076581;28;20198;-50
2023/10/19 03:33:21;;;;;;;0.00;0.00;;;22.00;49.20;;;;;;5083833;28;20194;-51
2023/10/19 03:35:54;;;;;;;0.00;0.00;;;22.00;49.20;;;;;;5083870;28;20194;-52
2023/10/19 03:38:25;;;;;;;0.03;0.03;;;22.00;49.20;;;;;;5074500;28;20704;-55
2023/10/19 03:41:06;;;;;;;0.00;0.00;;;22.00;49.20;;;;;;5077398;28;20274;-53
2023/10/19 03:43:48;;;;;;;0.10;0.10;;;22.00;49.10;;;;;;5085052;28;20199;-48
2023/10/19 03:46:28;;;;;;;0.00;0.00;;;22.10;49.80;;;;;;5081528;28;20610;-53
2023/10/19 03:49:04;;;;;;;0.00;0.00;;;22.10;49.10;;;;;;5079479;28;20248;-50
2023/10/19 03:51:58;;;;;;;0.10;0.10;;;22.20;49.00;;;;;;5071363;28;20253;-47
2023/10/19 03:54:32;;;;;;;0.00;0.00;;;22.20;49.00;;;;;;5085082;28;20563;-54
2023/10/19 03:57:11;;;;;;;0.00;0.00;;;22.20;49.00;;;;;;5087259;28;20220;-50
2023/10/19 03:59:42;;;;;;;0.10;0.10;;;22.20;48.90;;;;;;5081412;28;20245;-53
2023/10/19 04:02:16;;;;;;;0.00;0.00;;;22.20;48.90;;;;;;5079907;28;20225;-53
2023/10/19 04:04:48;;;;;;;0.00;0.00;;;22.20;48.90;;;;;;5085063;28;20613;-47
2023/10/19 04:07:23;;;;;;;0.00;0.00;;;22.30;48.90;;;;;;5089958;28;20524;-43
2023/10/19 04:10:09;;;;;;;0.00;0.00;;;22.30;48.90;;;;;;5089750;28;20548;-50
2023/10/19 04:12:43;;;;;;;0.00;0.00;;;22.30;48.90;;;;;;5083838;28;20513;-48
2023/10/19 04:15:16;;;;;;;0.10;0.10;;;22.30;48.90;;;;;;5085223;28;20241;-52
2023/10/19 04:17:49;;;;;;;0.08;0.08;;;22.40;48.90;;;;;;5079333;28;20300;-54
2023/10/19 04:20:42;;;;;;;0.00;0.00;;;22.40;48.90;;;;;;5087836;28;20273;-51
2023/10/19 04:23:15;;;;;;;0.00;0.00;;;22.40;48.80;;;;;;5087561;28;20285;-52
2023/10/19 04:25:47;;;;;;;0.03;0.03;;;22.40;48.80;;;;;;5089109;28;20198;-55
2023/10/19 04:28:30;;;;;;;0.03;0.03;;;22.40;48.70;;;;;;5086147;28;20701;-52
2023/10/19 04:31:06;;;;;;;0.10;0.10;;;22.50;48.70;;;;;;5090276;28;20543;-55
2023/10/19 04:33:37;;;;;;;0.10;0.10;;;22.50;48.70;;;;;;5082620;28;20616;-52
2023/10/19 04:36:11;;;;;;;0.10;0.10;;;22.50;48.70;;;;;;5073504;28;20237;-50
2023/10/19 04:38:43;;;;;;;0.10;0.10;;;22.50;48.70;;;;;;5081945;28;20286;-54
2023/10/19 04:41:18;;;;;;;0.05;0.05;;;22.50;48.60;;;;;;5077003;28;20610;-51
2023/10/19 04:43:54;;;;;;;0.10;0.10;;;22.60;48.60;;;;;;5086768;28;20272;-56
2023/10/19 04:46:25;;;;;;;0.00;0.00;;;22.60;48.60;;;;;;5086333;28;20233;-47
2023/10/19 04:48:57;;;;;;;0.00;0.00;;;22.60;48.50;;;;;;5081242;28;20689;-52
2023/10/19 04:51:28;;;;;;;0.00;0.00;;;22.60;48.50;;;;;;5089462;28;20545;-49
2023/10/19 04:53:59;;;;;;;0.00;0.00;;;22.70;48.50;;;;;;5087308;28;20238;-53
2023/10/19 04:56:32;;;;;;;0.00;0.00;;;22.60;48.40;;;;;;5084137;28;20548;-47
2023/10/19 04:59:06;;;;;;;0.10;0.10;;;22.70;48.50;;;;;;5087593;28;20716;-55
2023/10/19 05:01:38;;;;;;;0.10;0.10;;;22.70;48.50;;;;;;5085355;28;20520;-50
2023/10/19 05:04:12;;;;;;;0.03;0.03;;;22.70;48.40;;;;;;5088445;28;20238;-55
2023/10/19 05:06:44;;;;;;;0.10;0.10;;;22.70;48.40;;;;;;5084844;28;20516;-52
2023/10/19 05:09:16;;;;;;;0.10;0.10;;;22.80;48.50;;;;;;5086815;28;20287;-50
2023/10/19 05:11:48;;;;;;;0.00;0.00;;;22.80;48.50;;;;;;5080306;28;20513;-52
2023/10/19 05:14:21;;;;;;;0.00;0.00;;;22.80;48.50;;;;;;5083434;28;20558;-48
2023/10/19 05:16:52;;;;;;;0.00;0.00;;;22.90;48.50;;;;;;5072792;28;20242;-53
2023/10/19 05:19:24;;;;;;;0.03;0.03;;;22.90;48.50;;;;;;5079493;28;20218;-52
2023/10/19 05:21:55;;;;;;;0.10;0.10;;;22.90;48.50;;;;;;5097779;28;20195;-55
2023/10/19 05:24:27;;;;;;;0.00;0.00;;;22.90;49.00;;;;;;5089586;28;20523;-51
2023/10/19 05:26:59;;;;;;;0.10;0.10;;;22.90;48.40;;;;;;5074084;28;20202;-50
2023/10/19 05:29:33;;;;;;;0.10;0.10;;;22.90;48.30;;;;;;5079148;28;20577;-52
2023/10/19 05:32:05;;;;;;;0.00;0.00;;;22.90;48.30;;;;;;5089494;28;20272;-50
2023/10/19 05:34:36;;;;;;;0.00;0.00;;;23.00;48.30;;;;;;5081859;28;20554;-50
2023/10/19 05:37:08;;;;;;;0.03;0.03;;;22.90;48.20;;;;;;5085397;28;20586;-50
2023/10/19 05:39:40;;;;;;;0.10;0.10;;;23.00;48.20;;;;;;5074323;28;20641;-52
2023/10/19 05:42:11;;;;;;;0.10;0.10;;;23.00;48.20;;;;;;5080491;28;20216;-52
2023/10/19 05:44:44;;;;;;;0.05;0.05;;;22.90;48.20;;;;;;5086656;28;20204;-45
2023/10/19 05:47:15;;;;;;;0.00;0.00;;;23.00;48.20;;;;;;5076005;28;20358;-54
2023/10/19 05:49:47;;;;;;;0.10;0.10;;;23.00;48.20;;;;;;5084331;28;20194;-51
2023/10/19 05:52:18;;;;;;;0.10;0.10;;;23.00;48.20;;;;;;5076366;28;20525;-55
2023/10/19 05:54:50;;;;;;;0.10;0.10;;;23.00;48.30;;;;;;5087246;28;20550;-50
2023/10/19 05:57:22;;;;;;;0.08;0.08;;;23.00;48.30;;;;;;5072811;28;20202;-50
2023/10/19 05:59:55;;;;;;;0.10;0.10;;;23.00;48.30;;;;;;5075728;28;20647;-45
2023/10/19 06:02:26;;;;;;;0.10;0.10;;;23.00;48.30;;;;;;5081550;28;20186;-49
2023/10/19 06:04:58;;;;;;;0.00;0.00;;;23.00;48.20;;;;;;5084368;28;20473;-54
2023/10/19 06:07:30;;;;;;;0.00;0.00;;;23.00;48.00;;;;;;5080020;28;20260;-49
2023/10/19 06:10:04;;;;;;;0.10;0.10;;;23.00;48.00;;;;;;5090360;28;20220;-54
2023/10/19 06:12:37;;;;;;;0.08;0.08;;;23.00;47.90;;;;;;5073000;28;20532;-53
2023/10/19 06:15:10;;;;;;;0.03;0.03;;;22.90;47.80;;;;;;5081641;28;20619;-52
2023/10/19 06:17:42;;;;;;;0.10;0.10;;;22.90;47.80;;;;;;5081699;28;20307;-55
2023/10/19 06:20:23;;;;;;;0.10;0.10;;;23.00;47.80;;;;;;5079108;28;20693;-42
2023/10/19 06:22:55;;;;;;;0.10;0.10;;;23.00;47.80;;;;;;5071909;28;20533;-53
2023/10/19 06:25:27;;;;;;;0.10;0.10;;;23.00;47.70;;;;;;5084651;28;20560;-55
2023/10/19 06:27:59;;;;;;;0.00;0.00;;;22.90;47.70;;;;;;5078645;28;20290;-52
2023/10/19 06:30:32;;;;;;;0.10;0.10;;;22.90;47.70;;;;;;5086593;28;20269;-50
2023/10/19 06:33:04;;;;;;;0.10;0.10;;;22.90;47.70;;;;;;5081648;28;20218;-49
2023/10/19 06:35:37;;;;;;;0.00;0.00;;;22.90;47.70;;;;;;5078638;28;20194;-52
2023/10/19 06:38:09;;;;;;;0.10;0.10;;;22.90;47.80;;;;;;5090756;28;20538;-48
2023/10/19 06:40:40;;;;;;;0.10;0.10;;;22.90;47.80;;;;;;5087548;28;20619;-52
2023/10/19 06:43:12;;;;;;;0.00;0.00;;;22.90;47.70;;;;;;5085487;28;20561;-50
2023/10/19 06:45:47;;;;;;;0.10;0.10;;;22.90;47.70;;;;;;5075081;28;20194;-50
2023/10/19 06:48:18;;;;;;;0.10;0.10;;;22.90;47.70;;;;;;5075947;28;20685;-54
2023/10/19 06:50:50;;;;;;;0.00;0.00;;;22.90;47.70;;;;;;5087868;28;20228;-52
2023/10/19 06:53:21;;;;;;;0.10;0.10;;;22.90;47.60;;;;;;5074579;28;20646;-54
2023/10/19 06:55:53;;;;;;;0.00;0.00;;;22.80;47.60;;;;;;5069648;28;20300;-52
2023/10/19 06:58:26;;;;;;;0.10;0.10;;;22.80;47.50;;;;;;5075072;28;20744;-51
2023/10/19 07:01:05;;;;;;;0.00;0.00;;;22.80;47.50;;;;;;5083456;28;20520;-48
2023/10/19 07:03:36;;;;;;;0.10;0.10;;;22.80;47.50;;;;;;5072842;28;20607;-53
2023/10/19 07:06:13;;;;;;;0.10;0.10;;;22.70;47.40;;;;;;5087607;28;20649;-50
2023/10/19 07:08:44;;;;;;;0.10;0.10;;;22.70;47.50;;;;;;5074734;28;20559;-53
2023/10/19 07:11:19;;;;;;;0.00;0.00;;;22.70;47.50;;;;;;5071067;28;20251;-51
2023/10/19 07:13:50;;;;;;;0.00;0.00;;;22.70;47.50;;;;;;5085511;28;20194;-53
2023/10/19 07:16:23;;;;;;;0.05;0.05;;;22.60;47.50;;;;;;5073176;28;20315;-53
2023/10/19 07:18:55;;;;;;;0.08;0.08;;;22.60;47.50;;;;;;5089265;28;20229;-54
2023/10/19 07:21:29;;;;;;;0.10;0.10;;;22.60;47.50;;;;;;5076781;28;20517;-44
2023/10/19 07:24:04;;;;;;;0.10;0.10;;;22.60;47.50;;;;;;5073176;28;20579;-50
2023/10/19 07:26:43;;;;;;;0.10;0.10;;;22.60;47.50;;;;;;5069698;28;20589;-44
2023/10/19 07:29:15;;;;;;;0.10;0.10;;;22.60;47.60;;;;;;5071132;28;20613;-53
2023/10/19 07:31:47;;;;;;;0.00;0.00;;;22.50;47.50;;;;;;5070671;28;20243;-50
2023/10/19 07:34:25;;;;;;;0.10;0.10;;;22.50;47.50;;;;;;5071146;28;20530;-53
2023/10/19 07:36:58;;;;;;;0.00;0.00;;;22.50;47.60;;;;;;5070807;28;20197;-50
2023/10/19 07:39:33;;;;;;;0.00;0.00;;;22.50;47.60;;;;;;5070555;28;20646;-51
2023/10/19 07:42:06;;;;;;;0.00;0.00;;;22.50;47.60;;;;;;5070561;28;20580;-50
2023/10/19 07:44:38;;;;;;;0.00;0.00;;;22.40;47.50;;;;;;5071126;28;20194;-49
2023/10/19 07:47:11;;;;;;;0.10;0.10;;;22.40;47.50;;;;;;5071054;28;20186;-50
2023/10/19 07:49:43;;;;;;;0.03;0.03;;;22.40;47.60;;;;;;5070028;28;20548;-50
2023/10/19 07:52:15;;;;;;;0.10;0.10;;;22.40;47.60;;;;;;5071101;28;20273;-50
2023/10/19 07:54:46;;;;;;;0.10;0.10;;;22.30;47.60;;;;;;5070455;28;20269;-48
2023/10/19 07:57:18;;;;;;;0.00;0.00;;;22.30;47.60;;;;;;5069653;28;20534;-49
2023/10/19 07:59:51;;;;;;;0.10;0.10;;;22.30;47.60;;;;;;5070697;28;20633;-49
2023/10/19 08:02:24;;;;;;;0.00;0.00;;;22.30;47.60;;;;;;5070448;28;20199;-46
2023/10/19 08:04:56;;;;;;;0.00;0.00;;;22.30;47.60;;;;;;5081020;28;20272;-50
2023/10/19 08:07:28;;;;;;;0.10;0.10;;;22.20;47.60;;;;;;5091114;28;20190;-52
2023/10/19 08:10:00;;;;;;;0.00;0.00;;;22.20;47.60;;;;;;5075041;28;20616;-45
2023/10/19 08:12:31;;;;;;;0.05;0.05;;;22.20;48.20;;;;;;5085467;28;20322;-51
2023/10/19 08:15:02;;;;;;;0.10;0.10;;;22.20;47.60;;;;;;5074146;28;20579;-51
2023/10/19 08:17:36;;;;;;;0.10;0.10;;;22.20;47.60;;;;;;5071057;28;20242;-54
2023/10/19 08:20:15;;;;;;;0.10;0.10;;;22.10;47.60;;;;;;5070786;28;20622;-52
2023/10/19 08:22:47;;;;;;;0.10;0.10;;;22.10;47.60;;;;;;5070875;28;20620;-54
2023/10/19 08:25:19;;;;;;;0.00;0.00;;;22.10;47.60;;;;;;5070352;28;20616;-53
2023/10/19 08:27:54;;;;;;;0.10;0.10;;;22.10;47.60;;;;;;5070596;28;20626;-48
2023/10/19 08:30:25;;;;;;;0.10;0.10;;;22.00;47.50;;;;;;5070277;28;20591;-46
2023/10/19 08:32:59;;;;;;;0.00;0.00;;;22.00;47.50;;;;;;5074527;28;20744;-53
2023/10/19 08:35:31;;;;;;;0.10;0.10;;;22.00;47.50;;;;;;5073004;28;20547;-47
2023/10/19 08:38:04;;;;;;;0.10;0.10;;;22.00;47.50;;;;;;5086492;28;20248;-51
2023/10/19 08:40:35;;;;;;;0.00;0.00;;;22.00;47.60;;;;;;5088263;28;20691;-46
2023/10/19 08:43:07;;;;;;;0.00;0.00;;;21.90;47.50;;;;;;5081105;28;20214;-47
2023/10/19 08:45:39;;;;;;;0.00;0.00;;;21.90;47.60;;;;;;5070404;28;20644;-50
2023/10/19 08:48:13;;;;;;;0.03;0.03;;;21.90;47.60;;;;;;5050236;28;20574;-44
2023/10/19 08:50:46;;;;;;;0.10;0.10;;;21.80;47.50;;;;;;5069035;28;20362;-52
2023/10/19 08:53:19;;;;;;;0.10;0.10;;;21.80;47.50;;;;;;5070647;28;20194;-50
2023/10/19 08:55:54;;;;;;;0.00;0.00;;;21.80;47.60;;;;;;5057183;28;20242;-50
2023/10/19 08:58:27;;;;;;;0.00;0.00;;;21.80;47.70;;;;;;5055303;28;20660;-50
2023/10/19 09:01:06;;;;;;;0.10;0.10;;;21.70;47.60;;;;;;5077866;28;20730;-46
2023/10/19 09:03:40;;;;;;;0.10;0.10;;;21.70;47.70;;;;;;5088438;28;20303;-52
2023/10/19 09:06:15;;;;;;;0.10;0.10;;;21.70;47.60;;;;;;5076824;28;20185;-51
2023/10/19 09:08:49;;;;;;;0.00;0.00;;;21.70;47.60;;;;;;5091023;28;20361;-45
2023/10/19 09:11:20;;;;;;;0.10;0.10;;;21.60;47.60;;;;;;5091113;28;20197;-52
2023/10/19 09:13:53;;;;;;;0.10;0.10;;;21.60;47.60;;;;;;5094239;28;20585;-49
2023/10/19 09:16:26;;;;;;;0.10;0.10;;;21.60;47.60;;;;;;5091586;28;20645;-46
2023/10/19 09:18:59;;;;;;;0.10;0.10;;;21.60;47.50;;;;;;5090928;28;20635;-46
2023/10/19 09:21:32;;;;;;;0.10;0.10;;;21.60;47.60;;;;;;5091411;28;20206;-49
2023/10/19 09:24:04;;;;;;;0.00;0.00;;;21.60;47.60;;;;;;5076274;28;20254;-47
2023/10/19 09:26:35;;;;;;;0.00;0.00;;;21.50;47.50;;;;;;5080066;28;20247;-51
2023/10/19 09:29:08;;;;;;;0.10;0.10;;;21.50;47.50;;;;;;5090757;28;20250;-49
2023/10/19 09:31:41;;;;;;;0.10;0.10;;;21.50;47.50;;;;;;5091424;28;20212;-49
2023/10/19 09:34:17;;;;;;;0.00;0.00;;;21.50;47.60;;;;;;5091738;28;20263;-48
2023/10/19 09:36:49;;;;;;;0.10;0.10;;;21.50;47.60;;;;;;5080358;28;20542;-48
2023/10/19 09:39:20;;;;;;;0.00;0.00;;;21.40;47.60;;;;;;5087156;28;20202;-46
2023/10/19 09:41:52;;;;;;;0.10;0.10;;;21.40;47.60;;;;;;5090794;28;20553;-50
2023/10/19 09:44:27;;;;;;;0.03;0.03;;;21.40;47.60;;;;;;5091444;28;20557;-52
2023/10/19 09:47:03;;;;;;;0.10;0.10;;;21.40;48.30;;;;;;5090360;28;20594;-48
2023/10/19 09:49:37;;;;;;;0.10;0.10;;;21.40;47.70;;;;;;5090876;28;20558;-54
2023/10/19 09:52:09;;;;;;;0.10;0.10;;;21.30;47.60;;;;;;5088910;28;20183;-54
2023/10/19 09:54:52;;;;;;;0.10;0.10;;;21.30;47.60;;;;;;5090224;28;20255;-48
2023/10/19 09:57:30;;;;;;;0.00;0.00;;;21.30;47.60;;;;;;5090068;28;20699;-49
2023/10/19 10:00:11;;;;;;;0.10;0.10;;;21.30;47.60;;;;;;5083326;28;20584;-48
2023/10/19 10:02:46;;;;;;;0.10;0.10;;;21.30;47.60;;;;;;5071940;28;20604;-53
2023/10/19 10:05:53;;;;;;;0.10;0.10;;;21.20;47.60;;;;;;5090098;28;20570;-46
2023/10/19 10:08:44;;;;;;;0.00;0.00;;;21.20;47.70;;;;;;5088589;28;20260;-45
2023/10/19 10:11:24;;;;;;;0.10;0.10;;;21.20;47.60;;;;;;5106425;28;20653;-52
2023/10/19 10:13:56;;;;;;;0.00;0.00;;;21.10;47.50;;;;;;5109809;28;20189;-46
2023/10/19 10:16:28;;;;;;;0.10;0.10;;;21.10;47.60;;;;;;5110384;28;20557;-53
2023/10/19 10:19:02;;;;;;;0.10;0.10;;;21.10;47.60;;;;;;5107924;28;20248;-51
2023/10/19 10:21:35;;;;;;;0.10;0.10;;;21.10;47.60;;;;;;5089233;28;20248;-49
2023/10/19 10:24:08;;;;;;;0.10;0.10;;;21.00;47.60;;;;;;5089908;28;20217;-48
2023/10/19 10:27:03;;;;;;;0.10;0.10;;;21.00;47.70;;;;;;5089941;28;20217;-47
2023/10/19 10:29:35;;;;;;;0.10;0.10;;;21.00;47.80;;;;;;5074958;28;20214;-46
2023/10/19 10:32:09;;;;;;;0.10;0.10;;;21.00;47.70;;;;;;5086911;28;20246;-47
2023/10/19 10:34:50;;;;;;;0.00;0.00;;;21.00;47.80;;;;;;5079609;28;20704;-44
2023/10/19 10:37:23;;;;;;;0.00;0.00;;;20.90;47.70;;;;;;5079720;28;20532;-48
2023/10/19 10:40:03;;;;;;;0.00;0.00;;;20.90;47.70;;;;;;5078448;28;20586;-49
2023/10/19 10:42:35;;;;;;;0.00;0.00;;;20.90;47.70;;;;;;5078621;28;20252;-50
2023/10/19 10:45:09;;;;;;;0.00;0.00;;;20.90;47.70;;;;;;5078626;28;20300;-42
2023/10/19 10:47:40;;;;;;;0.00;0.00;;;20.90;47.70;;;;;;5078956;28;20260;-47
2023/10/19 10:50:12;;;;;;;0.00;0.00;;;20.90;47.70;;;;;;5078688;28;20199;-50
2023/10/19 10:52:45;;;;;;;0.00;0.00;;;20.80;47.70;;;;;;5079627;28;20204;-51
2023/10/19 10:55:18;;;;;;;0.00;0.00;;;20.80;47.80;;;;;;5079647;28;20190;-48
2023/10/19 10:57:49;;;;;;;0.05;0.05;;;20.80;47.80;;;;;;5079749;28;20569;-46
2023/10/19 11:00:22;;;;;;;0.00;0.00;;;20.80;47.80;;;;;;5078428;28;20215;-49
2023/10/19 11:03:07;;;;;;;0.10;0.10;;;20.70;47.70;;;;;;5078272;28;20190;-49
2023/10/19 11:05:39;;;;;;;0.00;0.00;;;20.70;47.80;;;;;;5075707;28;20615;-46
2023/10/19 11:08:16;;;;;;;0.10;0.10;;;20.70;47.80;;;;;;5077703;28;20307;-49
2023/10/19 11:10:48;;;;;;;0.00;0.00;;;20.70;47.80;;;;;;5078913;28;20320;-45
2023/10/19 11:13:20;;;;;;;0.10;0.10;;;20.70;47.80;;;;;;5084574;28;20186;-49
2023/10/19 11:15:53;;;;;;;0.10;0.10;;;20.70;47.90;;;;;;5089521;28;20358;-47
2023/10/19 11:18:35;;;;;;;0.00;0.00;;;20.70;47.90;;;;;;5089449;28;20210;-52
2023/10/19 11:21:09;;;;;;;0.05;0.05;;;20.60;47.90;;;;;;5086135;28;20222;-47
2023/10/19 11:23:44;;;;;;;0.10;0.10;;;20.60;47.80;;;;;;5089431;28;20244;-46
2023/10/19 11:26:16;;;;;;;0.00;0.00;;;20.60;47.90;;;;;;5089331;28;20250;-44
2023/10/19 11:28:50;;;;;;;0.00;0.00;;;20.60;47.90;;;;;;5089395;28;20573;-47
2023/10/19 11:31:22;;;;;;;0.10;0.10;;;20.60;47.90;;;;;;5089969;28;20607;-44
2023/10/19 11:33:55;;;;;;;0.10;0.10;;;20.50;47.80;;;;;;5089056;28;20241;-47
2023/10/19 11:36:26;;;;;;;0.10;0.10;;;20.50;47.80;;;;;;5088532;28;20298;-45
2023/10/19 11:39:00;;;;;;;0.10;0.10;;;20.50;47.90;;;;;;5088543;28;20595;-44
2023/10/19 11:41:31;;;;;;;0.10;0.10;;;20.50;47.90;;;;;;5088725;28;20308;-49
2023/10/19 11:44:02;;;;;;;0.10;0.10;;;20.50;47.90;;;;;;5085131;28;20322;-47
2023/10/19 11:46:33;;;;;;;0.10;0.10;;;20.50;47.90;;;;;;5071521;28;20198;-48
2023/10/19 11:49:05;;;;;;;0.00;0.00;;;20.40;47.90;;;;;;5071286;28;20289;-46
2023/10/19 11:51:37;;;;;;;0.10;0.10;;;20.40;47.90;;;;;;5071252;28;20671;-47
2023/10/19 11:54:12;;;;;;;0.10;0.10;;;20.40;47.90;;;;;;5071593;28;20238;-47
2023/10/19 11:56:44;;;;;;;0.10;0.10;;;20.40;47.90;;;;;;5071271;28;20625;-49
2023/10/19 11:59:15;;;;;;;0.10;0.10;;;20.30;48.00;;;;;;5071109;28;20293;-48
2023/10/19 12:01:46;;;;;;;0.10;0.10;;;20.30;48.00;;;;;;5070888;28;20265;-48
2023/10/19 12:04:18;;;;;;;0.00;0.00;;;20.30;48.00;;;;;;5076011;28;20333;-50
2023/10/19 12:06:50;;;;;;;0.10;0.10;;;20.30;48.00;;;;;;5091431;28;20610;-47
2023/10/19 12:09:25;;;;;;;0.10;0.10;;;20.30;48.00;;;;;;5091586;28;20218;-50
2023/10/19 12:11:56;;;;;;;0.10;0.10;;;20.30;48.00;;;;;;5091109;28;20517;-49
2023/10/19 12:14:28;;;;;;;0.03;0.03;;;20.30;48.00;;;;;;5091077;28;20548;-51
2023/10/19 12:17:00;;;;;;;0.10;0.10;;;20.30;48.00;;;;;;5091317;28;20264;-51
2023/10/19 12:19:32;;;;;;;0.10;0.10;;;20.30;48.00;;;;;;5092549;28;20644;-49
2023/10/19 12:22:04;;;;;;;0.10;0.10;;;20.20;48.00;;;;;;5095357;28;20563;-53
2023/10/19 12:24:37;;;;;;;0.10;0.10;;;20.20;48.00;;;;;;5094954;28;20547;-50
2023/10/19 12:27:09;;;;;;;0.10;0.10;;;20.20;48.00;;;;;;5094538;28;20529;-51
2023/10/19 12:29:40;;;;;;;0.10;0.10;;;20.20;48.00;;;;;;5094803;28;20570;-53
2023/10/19 12:32:13;;;;;;;0.10;0.10;;;20.10;48.00;;;;;;5093914;28;20513;-50
2023/10/19 12:34:45;;;;;;;0.15;0.15;;;20.10;48.00;;;;;;5094653;28;20543;-50
2023/10/19 12:37:17;;;;;;;0.10;0.10;;;20.10;48.00;;;;;;5094737;28;20287;-51
2023/10/19 12:39:51;;;;;;;0.00;0.00;;;20.10;48.10;;;;;;5094954;28;20248;-53
2023/10/19 12:42:23;;;;;;;0.10;0.10;;;20.10;48.10;;;;;;5094911;28;20546;-50
2023/10/19 12:44:55;;;;;;;0.10;0.10;;;20.00;48.10;;;;;;5095894;28;20214;-53
2023/10/19 12:47:27;;;;;;;0.00;0.00;;;20.00;48.10;;;;;;5094652;28;20264;-52
2023/10/19 12:49:58;;;;;;;0.00;0.00;;;20.00;48.10;;;;;;5094578;28;20571;-44
2023/10/19 12:52:32;;;;;;;0.10;0.10;;;20.00;48.10;;;;;;5094069;28;20197;-50
2023/10/19 12:55:06;;;;;;;0.10;0.10;;;20.00;48.10;;;;;;5079993;28;20195;-49
2023/10/19 12:57:37;;;;;;;0.10;0.10;;;20.00;48.10;;;;;;5074654;28;20617;-49
2023/10/19 13:02:59;;;;;;;0.00;0.00;;;20.00;48.10;;;;;;5074534;28;20288;-51
2023/10/19 13:05:34;;;;;;;0.10;0.10;;;19.90;48.00;;;;;;5089662;28;20300;-45
2023/10/19 13:08:07;;;;;;;0.10;0.10;;;19.90;48.00;;;;;;5094732;28;20551;-50
2023/10/19 13:10:41;;;;;;;0.10;0.10;;;19.90;48.00;;;;;;5093832;28;20201;-47
2023/10/19 13:13:14;;;;;;;0.10;0.10;;;19.90;48.00;;;;;;5094734;28;20243;-53
2023/10/19 13:15:48;;;;;;;0.10;0.10;;;19.80;48.00;;;;;;5091098;28;20536;-49
2023/10/19 13:18:21;;;;;;;0.20;0.20;;;19.80;48.00;;;;;;5094991;28;20206;-53
2023/10/19 13:20:54;;;;;;;0.10;0.10;;;19.80;48.10;;;;;;5094205;28;20245;-51
2023/10/19 13:23:25;;;;;;;0.08;0.08;;;19.80;48.10;;;;;;5093257;28;20535;-48
2023/10/19 13:26:08;;;;;;;0.10;0.10;;;19.80;48.10;;;;;;5093627;28;20187;-47